createdAt,value
2018-01-25T00:02:26.008Z,13.36
2018-01-25T00:04:57.235Z,13.35
2018-01-25T00:07:28.296Z,13.24
2018-01-25T00:09:58.723Z,13.26
2018-01-25T00:12:29.677Z,12.98
2018-01-25T00:15:00.203Z,12.33
2018-01-25T00:17:31.177Z,11.97
2018-01-25T00:20:01.371Z,11.71
2018-01-25T00:22:34.110Z,11.52
2018-01-25T00:25:04.655Z,11.35
2018-01-25T00:27:36.626Z,11.32
2018-01-25T00:30:07.648Z,11.27
2018-01-25T00:32:38.176Z,11.25
2018-01-25T00:35:08.253Z,11.24
2018-01-25T00:37:38.475Z,11.24
2018-01-25T00:40:08.998Z,11.16
2018-01-25T00:42:39.229Z,11.08
2018-01-25T00:45:09.822Z,11.08
2018-01-25T00:47:40.922Z,11.02
2018-01-25T00:50:12.167Z,10.87
2018-01-25T00:52:42.413Z,10.84
2018-01-25T00:55:12.730Z,10.85
2018-01-25T00:57:43.209Z,10.81
2018-01-25T01:00:14.231Z,10.90
2018-01-25T01:02:46.127Z,10.84
2018-01-25T01:05:16.609Z,10.79
2018-01-25T01:07:47.582Z,10.75
2018-01-25T01:10:17.774Z,10.81
2018-01-25T01:12:48.705Z,10.90
2018-01-25T01:15:18.966Z,10.87
2018-01-25T01:17:50.075Z,10.89
2018-01-25T01:20:20.293Z,10.79
2018-01-25T01:22:50.473Z,10.75
2018-01-25T01:25:21.067Z,10.72
2018-01-25T01:27:52.392Z,10.75
2018-01-25T01:30:22.920Z,10.85
2018-01-25T01:32:53.513Z,10.84
2018-01-25T01:35:23.766Z,10.80
2018-01-25T01:37:54.135Z,10.72
2018-01-25T01:40:25.124Z,10.71
2018-01-25T01:42:55.395Z,10.64
2018-01-25T01:45:26.639Z,10.69
2018-01-25T01:47:57.776Z,10.63
2018-01-25T01:50:29.102Z,10.69
2018-01-25T01:53:00.720Z,10.69
2018-01-25T01:55:31.010Z,10.56
2018-01-25T01:58:01.210Z,10.64
2018-01-25T02:00:32.348Z,10.59
2018-01-25T02:03:02.805Z,10.58
2018-01-25T02:05:33.985Z,10.60
2018-01-25T02:08:04.245Z,10.53
2018-01-25T02:10:35.354Z,10.50
2018-01-25T02:13:05.856Z,10.49
2018-01-25T02:15:37.006Z,10.38
2018-01-25T02:18:07.727Z,10.35
2018-01-25T02:20:38.120Z,10.27
2018-01-25T02:23:08.646Z,10.27
2018-01-25T02:25:39.086Z,10.22
2018-01-25T02:28:09.514Z,10.30
2018-01-25T02:30:39.862Z,10.42
2018-01-25T02:33:11.216Z,10.35
2018-01-25T02:35:42.315Z,10.29
2018-01-25T02:38:12.466Z,10.36
2018-01-25T02:40:43.646Z,10.21
2018-01-25T02:43:14.109Z,10.22
2018-01-25T02:45:44.894Z,10.17
2018-01-25T02:48:15.664Z,10.17
2018-01-25T02:50:46.217Z,10.24
2018-01-25T02:53:16.579Z,10.27
2018-01-25T02:55:46.846Z,10.20
2018-01-25T02:58:17.038Z,10.19
2018-01-25T03:00:47.679Z,10.20
2018-01-25T03:03:17.964Z,10.24
2018-01-25T03:05:49.141Z,10.16
2018-01-25T03:08:19.577Z,10.12
2018-01-25T03:10:50.014Z,10.13
2018-01-25T03:13:20.355Z,10.17
2018-01-25T03:15:51.169Z,10.30
2018-01-25T03:18:21.328Z,10.22
2018-01-25T03:20:51.653Z,10.19
2018-01-25T03:23:22.450Z,10.17
2018-01-25T03:25:53.356Z,10.17
2018-01-25T03:28:24.750Z,10.16
2018-01-25T03:30:54.871Z,10.31
2018-01-25T03:33:25.297Z,10.28
2018-01-25T03:35:55.850Z,10.26
2018-01-25T03:38:26.425Z,10.24
2018-01-25T03:40:56.871Z,10.14
2018-01-25T03:43:27.361Z,10.11
2018-01-25T03:45:59.069Z,10.16
2018-01-25T03:48:29.354Z,10.18
2018-01-25T03:51:00.529Z,10.11
2018-01-25T03:53:32.002Z,10.06
2018-01-25T03:56:02.343Z,10.02
2018-01-25T03:58:32.606Z,10.05
2018-01-25T04:01:03.465Z,10.09
2018-01-25T04:03:33.988Z,10.09
2018-01-25T04:06:04.230Z,10.03
2018-01-25T04:08:34.392Z,10.09
2018-01-25T04:11:04.702Z,10.12
2018-01-25T04:13:34.928Z,10.00
2018-01-25T04:16:05.381Z,10.09
2018-01-25T04:18:36.815Z,10.08
2018-01-25T04:21:07.096Z,10.09
2018-01-25T04:23:37.312Z,10.08
2018-01-25T04:26:07.376Z,10.02
2018-01-25T04:28:37.328Z,9.95
2018-01-25T04:31:07.432Z,10.06
2018-01-25T04:33:38.013Z,10.00
2018-01-25T04:36:08.063Z,9.93
2018-01-25T04:38:38.071Z,9.99
2018-01-25T04:41:07.950Z,10.01
2018-01-25T04:43:37.862Z,10.05
2018-01-25T04:46:07.679Z,9.98
2018-01-25T04:50:31.523Z,10.00
2018-01-25T04:53:02.133Z,10.08
2018-01-25T04:55:32.134Z,10.03
2018-01-25T04:58:02.121Z,10.01
2018-01-25T05:00:32.130Z,10.03
2018-01-25T05:03:02.289Z,9.96
2018-01-25T05:05:32.255Z,9.97
2018-01-25T05:08:02.962Z,9.96
2018-01-25T05:10:32.929Z,9.94
2018-01-25T05:13:02.675Z,9.93
2018-01-25T05:15:32.692Z,10.03
2018-01-25T05:18:02.674Z,9.92
2018-01-25T05:20:32.596Z,9.99
2018-01-25T05:23:03.473Z,9.92
2018-01-25T05:25:33.245Z,9.89
2018-01-25T05:28:03.914Z,9.77
2018-01-25T05:30:33.824Z,9.84
2018-01-25T05:33:03.847Z,9.83
2018-01-25T05:35:34.077Z,9.90
2018-01-25T05:38:04.071Z,9.84
2018-01-25T05:40:34.079Z,9.87
2018-01-25T05:43:04.739Z,9.83
2018-01-25T05:45:34.778Z,9.81
2018-01-25T05:48:05.571Z,9.71
2018-01-25T05:50:36.513Z,9.75
2018-01-25T05:53:06.443Z,9.80
2018-01-25T05:55:36.408Z,10.05
2018-01-25T05:58:07.057Z,10.26
2018-01-25T06:00:37.064Z,10.22
2018-01-25T06:03:07.049Z,10.10
2018-01-25T06:05:36.927Z,9.92
2018-01-25T06:08:07.552Z,9.80
2018-01-25T06:10:38.326Z,9.85
2018-01-25T06:13:08.288Z,9.84
2018-01-25T06:15:38.311Z,9.92
2018-01-25T06:18:08.330Z,10.01
2018-01-25T06:20:38.242Z,9.93
2018-01-25T06:23:08.208Z,9.90
2018-01-25T06:25:38.015Z,9.79
2018-01-25T06:28:07.879Z,9.77
2018-01-25T06:30:37.744Z,9.75
2018-01-25T06:33:08.177Z,9.76
2018-01-25T06:35:38.757Z,9.86
2018-01-25T06:38:09.464Z,9.80
2018-01-25T06:40:40.342Z,9.85
2018-01-25T06:43:10.865Z,9.80
2018-01-25T06:45:40.825Z,9.81
2018-01-25T06:48:10.811Z,9.86
2018-01-25T06:50:40.755Z,9.92
2018-01-25T06:53:11.047Z,9.83
2018-01-25T06:55:42.142Z,9.82
2018-01-25T06:58:12.121Z,9.73
2018-01-25T07:00:42.839Z,9.77
2018-01-25T07:03:13.508Z,9.74
2018-01-25T07:05:43.696Z,9.72
2018-01-25T07:08:14.397Z,9.75
2018-01-25T07:10:44.459Z,9.80
2018-01-25T07:13:15.504Z,9.83
2018-01-25T07:15:46.235Z,9.85
2018-01-25T07:18:16.980Z,9.84
2018-01-25T07:20:47.024Z,9.74
2018-01-25T07:23:16.947Z,9.89
2018-01-25T07:25:46.883Z,9.87
2018-01-25T07:28:16.735Z,9.87
2018-01-25T07:30:46.606Z,9.79
2018-01-25T07:33:16.525Z,9.82
2018-01-25T07:35:47.267Z,9.83
2018-01-25T07:38:17.144Z,9.80
2018-01-25T07:40:47.017Z,9.80
2018-01-25T07:43:17.640Z,9.82
2018-01-25T07:45:47.622Z,9.86
2018-01-25T07:48:17.508Z,9.89
2018-01-25T07:50:47.592Z,9.84
2018-01-25T07:53:17.655Z,9.86
2018-01-25T07:55:47.610Z,9.88
2018-01-25T07:58:21.685Z,9.89
2018-01-25T08:00:51.920Z,9.81
2018-01-25T08:03:21.848Z,9.89
2018-01-25T08:05:52.044Z,9.95
2018-01-25T08:08:22.085Z,9.91
2018-01-25T08:10:51.885Z,9.91
2018-01-25T08:13:25.854Z,9.95
2018-01-25T08:15:59.659Z,9.92
2018-01-25T08:18:29.575Z,9.99
2018-01-25T08:20:59.667Z,9.95
2018-01-25T08:23:29.413Z,9.96
2018-01-25T08:25:59.922Z,10.01
2018-01-25T08:28:29.853Z,9.97
2018-01-25T08:30:59.889Z,9.98
2018-01-25T08:33:30.468Z,10.06
2018-01-25T08:36:00.469Z,10.00
2018-01-25T08:38:30.333Z,9.97
2018-01-25T08:41:01.015Z,9.98
2018-01-25T08:43:30.961Z,10.05
2018-01-25T08:46:00.743Z,10.07
2018-01-25T08:48:30.672Z,10.04
2018-01-25T08:51:00.618Z,9.99
2018-01-25T08:53:30.524Z,10.09
2018-01-25T08:56:00.300Z,10.12
2018-01-25T08:58:30.337Z,10.17
2018-01-25T09:01:00.251Z,10.20
2018-01-25T09:03:30.219Z,10.27
2018-01-25T09:06:00.846Z,10.22
2018-01-25T09:08:31.542Z,10.38
2018-01-25T09:11:01.418Z,10.38
2018-01-25T09:13:31.464Z,10.27
2018-01-25T09:16:01.712Z,10.30
2018-01-25T09:18:31.673Z,10.35
2018-01-25T09:21:01.691Z,10.27
2018-01-25T09:23:31.665Z,10.28
2018-01-25T09:26:01.556Z,10.29
2018-01-25T09:28:31.565Z,10.32
2018-01-25T09:31:01.485Z,10.31
2018-01-25T09:33:31.299Z,10.32
2018-01-25T09:36:01.329Z,10.37
2018-01-25T09:38:31.332Z,10.48
2018-01-25T09:41:01.536Z,10.45
2018-01-25T09:43:31.510Z,10.57
2018-01-25T09:46:02.413Z,10.48
2018-01-25T09:48:32.616Z,10.50
2018-01-25T09:51:02.588Z,10.53
2018-01-25T09:53:32.464Z,10.54
2018-01-25T09:56:02.837Z,10.58
2018-01-25T09:58:32.827Z,10.69
2018-01-25T10:01:02.729Z,10.71
2018-01-25T10:03:32.641Z,10.75
2018-01-25T10:06:02.619Z,10.81
2018-01-25T10:08:32.648Z,10.85
2018-01-25T10:11:02.572Z,10.80
2018-01-25T10:13:32.708Z,10.90
2018-01-25T10:16:02.642Z,10.96
2018-01-25T10:18:32.805Z,10.86
2018-01-25T10:21:03.516Z,10.86
2018-01-25T10:23:33.375Z,10.86
2018-01-25T10:26:03.234Z,10.93
2018-01-25T10:28:33.133Z,10.95
2018-01-25T10:31:02.936Z,11.01
2018-01-25T10:33:32.941Z,11.09
2018-01-25T10:36:02.761Z,11.10
2018-01-25T10:38:32.802Z,11.02
2018-01-25T10:41:02.616Z,11.06
2018-01-25T10:43:32.603Z,10.93
2018-01-25T10:46:02.530Z,10.99
2018-01-25T10:48:33.325Z,11.00
2018-01-25T10:51:04.032Z,11.04
2018-01-25T10:53:33.884Z,10.99
2018-01-25T10:56:03.770Z,11.03
2018-01-25T10:58:33.813Z,11.22
2018-01-25T11:01:08.628Z,11.24
2018-01-25T11:03:39.590Z,11.25
2018-01-25T11:06:09.505Z,11.33
2018-01-25T11:08:39.467Z,11.38
2018-01-25T11:11:09.436Z,11.36
2018-01-25T11:13:40.413Z,11.49
2018-01-25T11:16:10.531Z,11.59
2018-01-25T11:18:40.454Z,11.57
2018-01-25T11:21:10.324Z,11.63
2018-01-25T11:23:40.231Z,11.67
2018-01-25T11:26:10.910Z,11.62
2018-01-25T11:28:40.960Z,11.60
2018-01-25T11:31:10.977Z,11.63
2018-01-25T11:33:40.884Z,11.44
2018-01-25T11:36:11.693Z,11.49
2018-01-25T11:38:42.245Z,11.57
2018-01-25T11:41:12.182Z,11.65
2018-01-25T11:43:43.009Z,11.75
2018-01-25T11:46:12.950Z,11.84
2018-01-25T11:48:43.763Z,11.79
2018-01-25T11:51:13.792Z,11.81
2018-01-25T11:53:44.558Z,11.79
2018-01-25T11:56:14.644Z,11.82
2018-01-25T11:58:45.276Z,12.01
2018-01-25T12:01:15.901Z,11.97
2018-01-25T12:03:45.768Z,12.01
2018-01-25T12:06:16.709Z,11.89
2018-01-25T12:08:46.680Z,12.00
2018-01-25T12:11:17.784Z,12.07
2018-01-25T12:13:47.664Z,12.13
2018-01-25T12:16:17.911Z,12.01
2018-01-25T12:18:47.977Z,11.97
2018-01-25T12:21:18.797Z,11.89
2018-01-25T12:23:48.677Z,11.94
2018-01-25T12:26:18.560Z,12.04
2018-01-25T12:28:49.288Z,12.06
2018-01-25T12:31:20.028Z,12.02
2018-01-25T12:33:51.140Z,11.95
2018-01-25T12:36:21.940Z,11.88
2018-01-25T12:38:51.901Z,11.94
2018-01-25T12:41:21.938Z,12.05
2018-01-25T12:43:52.738Z,11.98
2018-01-25T12:46:22.789Z,12.01
2018-01-25T12:48:53.559Z,12.02
2018-01-25T12:51:24.445Z,11.99
2018-01-25T12:53:54.388Z,12.00
2018-01-25T12:56:25.250Z,11.99
2018-01-25T12:58:55.165Z,11.98
2018-01-25T13:01:25.032Z,11.97
2018-01-25T13:03:55.034Z,11.90
2018-01-25T13:06:24.893Z,11.95
2018-01-25T13:08:55.544Z,11.88
2018-01-25T13:11:25.468Z,11.80
2018-01-25T13:13:55.733Z,11.81
2018-01-25T13:16:25.618Z,11.78
2018-01-25T13:18:55.661Z,11.81
2018-01-25T13:21:25.537Z,11.95
2018-01-25T13:23:55.435Z,11.92
2018-01-25T13:26:25.439Z,11.89
2018-01-25T13:28:56.190Z,11.91
2018-01-25T13:31:26.063Z,11.95
2018-01-25T13:33:55.988Z,12.07
2018-01-25T13:36:26.712Z,12.04
2018-01-25T13:38:56.577Z,12.03
2018-01-25T13:41:26.678Z,12.02
2018-01-25T13:43:57.808Z,11.97
2018-01-25T13:46:28.662Z,11.97
2018-01-25T13:48:58.657Z,12.33
2018-01-25T13:51:29.344Z,13.26
2018-01-25T13:53:59.553Z,13.88
2018-01-25T13:56:29.528Z,14.34
2018-01-25T13:59:00.462Z,14.77
2018-01-25T14:01:30.385Z,15.02
2018-01-25T14:04:01.249Z,14.73
2018-01-25T14:06:31.659Z,13.65
2018-01-25T14:09:01.761Z,13.06
2018-01-25T14:11:31.612Z,12.53
2018-01-25T14:14:01.482Z,12.29
2018-01-25T14:16:31.362Z,12.22
2018-01-25T14:19:01.372Z,12.06
2018-01-25T14:21:31.365Z,11.93
2018-01-25T14:24:02.622Z,11.97
2018-01-25T14:26:32.812Z,11.93
2018-01-25T14:29:03.519Z,11.86
2018-01-25T14:31:33.395Z,11.83
2018-01-25T14:34:03.382Z,11.78
2018-01-25T14:36:34.080Z,11.79
2018-01-25T14:39:04.125Z,11.71
2018-01-25T14:41:34.338Z,11.72
2018-01-25T14:44:04.301Z,11.78
2018-01-25T14:46:34.189Z,11.71
2018-01-25T14:49:05.139Z,11.63
2018-01-25T14:51:35.733Z,11.63
2018-01-25T14:54:05.854Z,11.55
2018-01-25T14:56:35.714Z,11.59
2018-01-25T14:59:05.858Z,11.64
2018-01-25T15:01:35.749Z,11.63
2018-01-25T15:04:05.825Z,11.51
2018-01-25T15:06:35.920Z,11.38
2018-01-25T15:09:06.513Z,11.40
2018-01-25T15:11:36.314Z,11.35
2018-01-25T15:14:07.017Z,11.31
2018-01-25T15:16:36.914Z,11.45
2018-01-25T15:19:07.094Z,11.47
2018-01-25T15:21:37.101Z,11.34
2018-01-25T15:24:07.937Z,11.22
2018-01-25T15:26:42.562Z,11.31
2018-01-25T15:29:13.357Z,11.24
2018-01-25T15:31:43.186Z,11.25
2018-01-25T15:34:14.295Z,11.22
2018-01-25T15:36:43.913Z,11.17
2018-01-25T15:39:13.933Z,11.29
2018-01-25T15:41:43.785Z,11.26
2018-01-25T15:44:13.732Z,11.19
2018-01-25T15:46:43.761Z,11.24
2018-01-25T15:49:13.632Z,11.15
2018-01-25T15:51:44.495Z,11.12
2018-01-25T15:54:14.633Z,11.26
2018-01-25T15:56:44.501Z,11.15
2018-01-25T15:59:14.465Z,11.08
2018-01-25T16:01:44.348Z,11.14
2018-01-25T16:04:15.158Z,11.06
2018-01-25T16:06:45.045Z,11.08
2018-01-25T16:09:15.103Z,11.03
2018-01-25T16:11:45.752Z,11.02
2018-01-25T16:14:16.447Z,11.04
2018-01-25T16:16:46.540Z,11.06
2018-01-25T16:19:16.526Z,11.03
2018-01-25T16:21:46.581Z,10.96
2018-01-25T16:24:16.378Z,10.93
2018-01-25T16:26:46.287Z,10.92
2018-01-25T16:29:16.168Z,10.86
2018-01-25T16:31:46.343Z,10.78
2018-01-25T16:34:16.141Z,10.66
2018-01-25T16:36:46.029Z,10.57
2018-01-25T16:39:16.902Z,10.60
2018-01-25T16:41:46.961Z,10.57
2018-01-25T16:44:17.026Z,10.53
2018-01-25T16:46:47.125Z,10.47
2018-01-25T16:49:17.931Z,10.46
2018-01-25T16:51:47.957Z,10.53
2018-01-25T16:54:17.917Z,10.64
2018-01-25T16:56:47.834Z,10.51
2018-01-25T16:59:17.902Z,10.50
2018-01-25T17:01:48.056Z,10.38
2018-01-25T17:04:18.809Z,10.51
2018-01-25T17:06:48.780Z,10.33
2018-01-25T17:09:18.785Z,10.27
2018-01-25T17:11:48.832Z,10.22
2018-01-25T17:14:19.702Z,10.22
2018-01-25T17:16:49.708Z,10.26
2018-01-25T17:19:19.690Z,10.26
2018-01-25T17:21:49.583Z,10.18
2018-01-25T17:24:19.774Z,10.16
2018-01-25T17:26:50.020Z,10.14
2018-01-25T17:29:20.180Z,10.04
2018-01-25T17:31:50.434Z,10.07
2018-01-25T17:34:21.117Z,10.06
2018-01-25T17:36:51.096Z,10.10
2018-01-25T17:39:21.715Z,10.02
2018-01-25T17:41:51.761Z,9.98
2018-01-25T17:44:21.667Z,10.04
2018-01-25T17:46:52.673Z,9.96
2018-01-25T17:49:22.706Z,9.95
2018-01-25T17:51:52.816Z,10.03
2018-01-25T17:54:22.913Z,9.96
2018-01-25T17:56:53.193Z,9.95
2018-01-25T17:59:23.132Z,9.93
2018-01-25T18:01:53.154Z,9.95
2018-01-25T18:04:23.113Z,9.92
2018-01-25T18:06:53.902Z,9.87
2018-01-25T18:09:23.968Z,9.90
2018-01-25T18:11:54.550Z,9.88
2018-01-25T18:14:24.509Z,9.91
2018-01-25T18:16:54.460Z,9.86
2018-01-25T18:19:24.495Z,9.88
2018-01-25T18:21:54.698Z,9.86
2018-01-25T18:24:24.616Z,9.90
2018-01-25T18:26:54.552Z,9.85
2018-01-25T18:29:24.639Z,9.84
2018-01-25T18:31:55.450Z,9.88
2018-01-25T18:34:25.329Z,9.71
2018-01-25T18:36:55.246Z,9.70
2018-01-25T18:39:25.097Z,9.71
2018-01-25T18:41:54.959Z,9.73
2018-01-25T18:44:24.980Z,9.79
2018-01-25T18:46:54.875Z,9.75
2018-01-25T18:49:24.794Z,9.75
2018-01-25T18:51:54.986Z,9.76
2018-01-25T18:54:24.946Z,9.70
2018-01-25T18:56:55.444Z,9.72
2018-01-25T18:59:25.995Z,9.82
2018-01-25T19:01:56.007Z,9.99
2018-01-25T19:04:26.223Z,9.94
2018-01-25T19:06:57.161Z,10.00
2018-01-25T19:09:28.290Z,9.92
2018-01-25T19:11:58.885Z,9.91
2018-01-25T19:14:28.852Z,9.90
2018-01-25T19:16:59.634Z,9.90
2018-01-25T19:19:29.780Z,9.83
2018-01-25T19:22:00.001Z,9.76
2018-01-25T19:24:30.358Z,9.71
2018-01-25T19:27:01.315Z,9.71
2018-01-25T19:29:32.260Z,9.74
2018-01-25T19:32:02.645Z,9.75
2018-01-25T19:34:33.135Z,9.73
2018-01-25T19:37:03.594Z,9.77
2018-01-25T19:39:34.061Z,9.74
2018-01-25T19:42:04.959Z,9.69
2018-01-25T19:44:35.032Z,9.66
2018-01-25T19:47:05.492Z,9.70
2018-01-25T19:49:35.647Z,9.67
2018-01-25T19:52:07.226Z,9.68
2018-01-25T19:54:37.650Z,9.72
2018-01-25T19:57:08.579Z,9.68
2018-01-25T19:59:39.972Z,9.56
2018-01-25T20:02:11.393Z,9.57
2018-01-25T20:04:42.111Z,9.60
2018-01-25T20:07:12.760Z,9.58
2018-01-25T20:09:43.322Z,9.57
2018-01-25T20:12:13.835Z,9.57
2018-01-25T20:14:45.271Z,9.58
2018-01-25T20:17:15.909Z,9.62
2018-01-25T20:19:47.216Z,9.63
2018-01-25T20:22:17.637Z,9.57
2018-01-25T20:24:48.282Z,9.63
2018-01-25T20:27:19.204Z,9.56
2018-01-25T20:29:49.916Z,9.55
2018-01-25T20:32:20.645Z,9.52
2018-01-25T20:34:51.918Z,9.55
2018-01-25T20:37:22.673Z,9.50
2018-01-25T20:39:53.439Z,9.52
2018-01-25T20:42:23.997Z,9.49
2018-01-25T20:44:54.838Z,9.49
2018-01-25T20:47:26.356Z,9.49
2018-01-25T20:49:57.050Z,9.51
2018-01-25T20:52:27.689Z,9.55
2018-01-25T20:54:58.312Z,9.54
2018-01-25T20:57:29.897Z,9.54
2018-01-25T21:00:00.573Z,9.54
2018-01-25T21:02:31.899Z,9.59
2018-01-25T21:05:02.583Z,9.59
2018-01-25T21:07:32.990Z,9.56
2018-01-25T21:10:04.106Z,9.61
2018-01-25T21:12:34.738Z,9.57
2018-01-25T21:15:07.146Z,9.57
2018-01-25T21:17:37.403Z,9.56
2018-01-25T21:20:07.986Z,9.54
2018-01-25T21:22:38.205Z,9.53
2018-01-25T21:25:08.466Z,9.57
2018-01-25T21:27:39.333Z,9.61
2018-01-25T21:30:09.559Z,9.68
2018-01-25T21:32:39.732Z,9.64
2018-01-25T21:35:09.859Z,9.62
2018-01-25T21:37:40.220Z,9.61
2018-01-25T21:40:10.350Z,9.54
2018-01-25T21:42:40.514Z,9.55
2018-01-25T21:45:10.782Z,9.57
2018-01-25T21:47:40.773Z,9.57
2018-01-25T21:50:11.634Z,9.60
2018-01-25T21:52:41.635Z,9.58
2018-01-25T21:55:12.350Z,9.61
2018-01-25T21:57:42.294Z,9.60
2018-01-25T22:00:13.155Z,9.60
2018-01-25T22:02:43.129Z,9.60
2018-01-25T22:05:13.357Z,9.57
2018-01-25T22:07:43.368Z,9.55
2018-01-25T22:10:13.363Z,9.56
2018-01-25T22:12:43.186Z,9.60
2018-01-25T22:15:13.252Z,9.61
2018-01-25T22:17:43.233Z,9.57
2018-01-25T22:20:13.171Z,9.56
2018-01-25T22:22:43.883Z,9.54
2018-01-25T22:25:13.902Z,9.54
2018-01-25T22:27:43.911Z,9.56
2018-01-25T22:30:14.189Z,9.57
2018-01-25T22:32:44.047Z,9.56
2018-01-25T22:35:13.981Z,9.54
2018-01-25T22:37:44.039Z,9.54
2018-01-25T22:40:13.934Z,9.53
2018-01-25T22:42:45.155Z,9.54
2018-01-25T22:45:16.743Z,9.48
2018-01-25T22:47:46.978Z,9.51
2018-01-25T22:50:16.927Z,9.50
2018-01-25T22:52:46.895Z,9.44
2018-01-25T22:55:17.508Z,9.49
2018-01-25T22:57:54.678Z,9.53
2018-01-25T23:00:37.827Z,9.47
2018-01-25T23:03:08.600Z,9.45
2018-01-25T23:05:38.428Z,9.48
2018-01-25T23:08:08.272Z,9.53
2018-01-25T23:10:38.173Z,9.55
2018-01-25T23:13:08.213Z,9.57
2018-01-25T23:15:38.205Z,9.57
2018-01-25T23:18:08.278Z,9.58
2018-01-25T23:20:38.320Z,9.61
2018-01-25T23:23:08.200Z,9.54
2018-01-25T23:25:39.049Z,9.56
2018-01-25T23:28:08.942Z,9.55
2018-01-25T23:30:39.949Z,9.66
2018-01-25T23:33:09.895Z,9.55
2018-01-25T23:35:40.513Z,9.51
2018-01-25T23:38:10.399Z,9.52
2018-01-25T23:40:40.138Z,9.50
2018-01-25T23:43:10.206Z,9.53
2018-01-25T23:45:40.096Z,9.63
2018-01-25T23:48:10.694Z,9.48
2018-01-25T23:50:40.541Z,9.43
2018-01-25T23:53:11.239Z,9.43
2018-01-25T23:55:41.303Z,9.41
2018-01-25T23:58:11.270Z,9.35
